Time;durP1;ratioP1;P1;durP2;ratioP2;P2;SDS_P1;SDS_P2;PMS_P1;PMS_P2;Temp;Humidity;BMP_temperature;BMP_pressure;BME280_temperature;BME280_humidity;BME280_pressure;Samples;Min_cycle;Max_cycle;Signal;HPM_P1;HPM_P2
2022/08/17 00:00:30;;;;;;;6.18;5.53;;;;;;;;;;5053902;28;20045;-52
2022/08/17 00:03:15;;;;;;;6.15;5.55;;;27.20;61.00;;;;;;5053580;28;20112;-51
2022/08/17 00:06:02;;;;;;;5.53;5.03;;;27.20;61.30;;;;;;5053913;28;20079;-50
2022/08/17 00:08:34;;;;;;;5.72;5.05;;;27.20;66.80;;;;;;5053837;28;20036;-51
2022/08/17 00:11:04;;;;;;;5.40;4.90;;;27.20;66.60;;;;;;5053760;28;20383;-51
2022/08/17 00:13:32;;;;;;;;;;;27.20;67.40;;;;;;5054165;28;20498;-53
2022/08/17 00:16:04;;;;;;;7.15;5.38;;;27.10;66.70;;;;;;5053603;28;19955;-52
2022/08/17 00:18:31;;;;;;;6.07;5.47;;;27.20;66.90;;;;;;5053668;28;20083;-50
2022/08/17 00:20:58;;;;;;;5.82;5.32;;;27.20;64.40;;;;;;5053488;28;20069;-53
2022/08/17 00:23:24;;;;;;;5.50;5.00;;;27.10;64.30;;;;;;5053530;28;20021;-52
2022/08/17 00:25:51;;;;;;;6.30;5.70;;;;;;;;;;5053439;28;20070;-51
2022/08/17 00:28:17;;;;;;;6.20;5.43;;;;;;;;;;5053377;28;20499;-54
2022/08/17 00:30:45;;;;;;;5.65;5.10;;;27.20;66.80;;;;;;5053518;28;20460;-51
2022/08/17 00:33:14;;;;;;;6.68;5.95;;;27.10;66.80;;;;;;5053245;28;20518;-54
2022/08/17 00:35:41;;;;;;;6.47;5.85;;;27.10;66.80;;;;;;5053362;28;20479;-54
2022/08/17 00:38:11;;;;;;;5.65;5.03;;;27.10;66.90;;;;;;5053243;28;20613;-51
2022/08/17 00:40:44;;;;;;;6.63;5.93;;;27.20;61.40;;;;;;5053187;28;20070;-51
2022/08/17 00:43:26;;;;;;;6.13;5.53;;;27.00;61.40;;;;;;5053184;28;20029;-55
2022/08/17 00:45:53;;;;;;;6.03;5.53;;;;;;;;;;5053133;28;20037;-51
2022/08/17 00:48:19;;;;;;;6.30;5.70;;;;;;;;;;5053108;28;20078;-51
2022/08/17 00:50:58;;;;;;;5.47;5.05;;;27.10;67.00;;;;;;5053101;28;20025;-53
2022/08/17 00:53:27;;;;;;;6.90;6.20;;;27.10;67.00;;;;;;5053013;28;20032;-52
2022/08/17 00:55:54;;;;;;;6.72;5.47;;;;;;;;;;5052833;28;20025;-53
2022/08/17 00:58:21;;;;;;;5.78;5.28;;;27.10;66.80;;;;;;5052895;28;20108;-52
2022/08/17 01:00:47;;;;;;;5.63;5.20;;;;;;;;;;5052410;28;20033;-51
2022/08/17 01:03:18;;;;;;;5.85;5.38;;;27.10;67.00;;;;;;5052489;28;20499;-51
2022/08/17 01:05:47;;;;;;;5.47;5.07;;;27.10;67.00;;;;;;5052832;28;20029;-51
2022/08/17 01:08:15;;;;;;;6.20;5.68;;;27.10;67.00;;;;;;5052715;28;20029;-50
2022/08/17 01:10:45;;;;;;;6.18;5.07;;;27.00;66.90;;;;;;5052924;28;20609;-51
2022/08/17 01:13:12;;;;;;;6.63;5.40;;;27.00;66.90;;;;;;5052662;28;20083;-54
2022/08/17 01:16:06;;;;;;;7.43;6.03;;;27.00;67.00;;;;;;5052546;28;20029;-52
2022/08/17 01:18:33;;;;;;;5.72;5.22;;;27.00;66.00;;;;;;5052527;28;20025;-51
2022/08/17 01:21:04;;;;;;;6.18;5.57;;;27.00;67.10;;;;;;5052444;28;20079;-52
2022/08/17 01:23:30;;;;;;;6.28;5.45;;;;;;;;;;5052786;28;20112;-53
2022/08/17 01:26:00;;;;;;;6.72;5.93;;;27.00;67.10;;;;;;5052463;28;20063;-57
2022/08/17 01:28:32;;;;;;;6.78;6.07;;;26.80;66.90;;;;;;5052628;28;20021;-57
2022/08/17 01:31:01;;;;;;;6.18;5.53;;;26.90;67.00;;;;;;5052413;28;20068;-57
2022/08/17 01:33:27;;;;;;;6.30;5.80;;;;;;;;;;5052307;28;20384;-56
2022/08/17 01:35:53;;;;;;;7.18;6.03;;;;;;;;;;5052238;28;20090;-57
2022/08/17 01:38:19;;;;;;;6.13;5.65;;;;;;;;;;5052487;28;20036;-58
2022/08/17 01:40:50;;;;;;;6.20;5.60;;;27.00;67.20;;;;;;5052121;28;20369;-57
2022/08/17 01:43:22;;;;;;;6.45;5.85;;;27.00;61.50;;;;;;5052273;28;20126;-50
2022/08/17 01:45:51;;;;;;;5.80;5.30;;;27.00;66.80;;;;;;5052242;28;20056;-58
2022/08/17 01:48:18;;;;;;;6.00;5.50;;;27.00;66.90;;;;;;5052403;28;20375;-57
2022/08/17 01:50:46;;;;;;;5.72;5.22;;;27.00;67.00;;;;;;5052166;28;20028;-56
2022/08/17 01:53:23;;;;;;;5.07;4.68;;;26.80;67.10;;;;;;5052122;28;20025;-58
2022/08/17 01:55:52;;;;;;;5.13;4.72;;;27.00;67.10;;;;;;5052123;28;20032;-57
2022/08/17 01:58:19;;;;;;;6.83;6.17;;;;;;;;;;5052085;28;20110;-57
2022/08/17 02:00:47;;;;;;;6.75;6.15;;;26.90;67.20;;;;;;5051954;28;20306;-57
2022/08/17 02:03:14;;;;;;;9.35;5.70;;;;;;;;;;5051907;28;20045;-57
2022/08/17 02:05:40;;;;;;;5.88;5.35;;;;;;;;;;5051978;28;20533;-58
2022/08/17 02:08:06;;;;;;;6.53;5.93;;;;;;;;;;5052003;28;20033;-57
2022/08/17 02:10:33;;;;;;;5.20;4.80;;;26.90;67.00;;;;;;5051873;28;20029;-58
2022/08/17 02:13:00;;;;;;;5.88;5.40;;;26.90;65.20;;;;;;5054899;28;20120;-58
2022/08/17 02:15:26;;;;;;;5.20;4.72;;;;;;;;;;5055907;28;20071;-58
2022/08/17 02:17:52;;;;;;;5.07;4.68;;;;;;;;;;5055912;28;20468;-57
2022/08/17 02:20:18;;;;;;;6.40;5.80;;;;;;;;;;5037871;28;20088;-58
2022/08/17 02:22:45;;;;;;;6.95;5.97;;;26.90;65.60;;;;;;5056009;28;20021;-56
2022/08/17 02:25:15;;;;;;;5.57;5.07;;;26.90;67.00;;;;;;5055764;28;20029;-58
2022/08/17 02:27:40;;;;;;;4.80;4.40;;;;;;;;;;5055712;28;20045;-58
2022/08/17 02:30:08;;;;;;;6.45;5.28;;;26.80;66.40;;;;;;5055660;28;20028;-57
2022/08/17 02:32:34;;;;;;;5.38;4.70;;;;;;;;;;5055590;28;20056;-58
2022/08/17 02:35:00;;;;;;;6.55;5.95;;;;;;;;;;5055596;28;20068;-58
2022/08/17 02:37:28;;;;;;;6.45;5.85;;;26.90;66.90;;;;;;5055588;28;20025;-58
2022/08/17 02:39:58;;;;;;;5.80;5.30;;;;;;;;;;5055469;28;20025;-53
2022/08/17 02:42:33;;;;;;;5.28;4.88;;;27.00;61.80;;;;;;5055493;28;20056;-53
2022/08/17 02:44:59;;;;;;;6.22;5.63;;;26.90;64.90;;;;;;5055522;28;20037;-55
2022/08/17 02:47:26;;;;;;;6.70;5.38;;;;;;;;;;5055329;28;20021;-52
2022/08/17 02:49:53;;;;;;;5.78;5.28;;;;;;;;;;5055317;28;20025;-54
2022/08/17 02:52:20;;;;;;;6.25;5.65;;;;;;;;;;5055308;28;20257;-55
2022/08/17 02:54:46;;;;;;;6.45;5.75;;;;;;;;;;5055237;28;20025;-54
2022/08/17 02:57:12;;;;;;;5.45;4.93;;;;;;;;;;5055276;28;20029;-54
2022/08/17 02:59:39;;;;;;;5.22;4.82;;;26.80;67.40;;;;;;5055273;28;20391;-58
2022/08/17 03:02:10;;;;;;;5.82;5.32;;;26.90;61.90;;;;;;5054851;28;20048;-58
2022/08/17 03:04:36;;;;;;;5.30;4.80;;;;;;;;;;5055037;28;20057;-57
2022/08/17 03:07:03;;;;;;;6.70;5.30;;;26.90;66.10;;;;;;5054948;28;20029;-58
2022/08/17 03:09:29;;;;;;;6.57;5.55;;;;;;;;;;5054910;28;20032;-57
2022/08/17 03:12:20;;;;;;;4.93;4.35;;;26.80;67.40;;;;;;5054862;28;20044;-58
2022/08/17 03:14:46;;;;;;;5.80;5.30;;;;;;;;;;5054863;28;20021;-57
2022/08/17 03:17:12;;;;;;;7.10;5.70;;;;;;;;;;5036894;28;20025;-58
2022/08/17 03:19:38;;;;;;;5.63;5.07;;;;;;;;;;5054623;28;20092;-57
2022/08/17 03:22:07;;;;;;;6.22;5.55;;;26.80;61.90;;;;;;5054650;28;20033;-57
2022/08/17 03:24:33;;;;;;;6.07;5.47;;;;;;;;;;5054518;28;20556;-58
2022/08/17 03:26:59;;;;;;;5.68;5.18;;;;;;;;;;5054866;28;20048;-58
2022/08/17 03:29:25;;;;;;;5.15;4.65;;;;;;;;;;5054519;28;20028;-58
2022/08/17 03:31:51;;;;;;;5.60;5.05;;;;;;;;;;5054440;28;20029;-57
2022/08/17 03:34:17;;;;;;;6.60;4.88;;;;;;;;;;5054526;28;20032;-58
2022/08/17 03:36:43;;;;;;;5.15;4.75;;;;;;;;;;5054392;28;20602;-58
2022/08/17 03:39:10;;;;;;;6.82;5.15;;;27.00;65.90;;;;;;5054418;28;20040;-57
2022/08/17 03:41:35;;;;;;;6.07;5.55;;;;;;;;;;5054201;28;20053;-57
2022/08/17 03:44:02;;;;;;;7.65;5.07;;;;;;;;;;5054215;28;20029;-57
2022/08/17 03:57:28;;;;;;;5.72;4.60;;;26.70;64.50;;;;;;5054383;28;20075;-57
2022/08/17 03:59:54;;;;;;;5.30;4.80;;;;;;;;;;5053879;28;20029;-57
2022/08/17 04:02:31;;;;;;;5.00;4.50;;;26.70;67.60;;;;;;5053651;28;20454;-58
2022/08/17 04:04:57;;;;;;;5.13;4.63;;;;;;;;;;5054180;28;20388;-58
2022/08/17 04:07:26;;;;;;;4.72;4.30;;;26.70;67.60;;;;;;5053867;28;20033;-57
2022/08/17 04:09:52;;;;;;;6.93;5.25;;;;;;;;;;5053852;28;20024;-58
2022/08/17 04:12:21;;;;;;;5.28;4.47;;;26.80;67.80;;;;;;5053740;28;20021;-58
2022/08/17 04:14:47;;;;;;;7.25;4.57;;;;;;;;;;5053715;28;20483;-57
2022/08/17 04:17:13;;;;;;;4.50;4.10;;;;;;;;;;5053664;28;20529;-56
2022/08/17 04:19:39;;;;;;;5.97;4.60;;;;;;;;;;5053595;28;20025;-58
2022/08/17 04:22:05;;;;;;;5.28;4.78;;;;;;;;;;5053476;28;20040;-57
2022/08/17 04:24:32;;;;;;;5.55;4.78;;;26.70;67.80;;;;;;5053501;28;20590;-58
2022/08/17 04:26:58;;;;;;;4.50;4.10;;;;;;;;;;5053368;28;20063;-58
2022/08/17 04:29:27;;;;;;;5.45;4.95;;;26.70;64.70;;;;;;5053516;28;20119;-58
2022/08/17 04:31:53;;;;;;;4.72;4.32;;;;;;;;;;5053420;28;20029;-57
2022/08/17 04:34:19;;;;;;;4.45;4.05;;;;;;;;;;5052643;28;20026;-58
2022/08/17 04:36:45;;;;;;;4.40;4.10;;;;;;;;;;5053341;28;20533;-58
2022/08/17 04:39:11;;;;;;;4.85;4.20;;;;;;;;;;5053262;28;20033;-57
2022/08/17 04:44:22;;;;;;;4.60;4.20;;;;;;;;;;5053206;28;20067;-56
2022/08/17 04:46:48;;;;;;;4.60;4.20;;;;;;;;;;5053172;28;20040;-57
2022/08/17 04:49:14;;;;;;;4.93;4.32;;;;;;;;;;5053018;28;20422;-58
2022/08/17 04:51:43;;;;;;;4.07;3.72;;;26.70;67.80;;;;;;5053246;28;20025;-56
2022/08/17 04:54:12;;;;;;;3.90;3.60;;;26.70;67.90;;;;;;5052939;28;20029;-58
2022/08/17 04:56:38;;;;;;;4.57;4.13;;;;;;;;;;5052891;28;20028;-57
2022/08/17 04:59:12;;;;;;;4.35;3.97;;;26.70;62.40;;;;;;5052881;28;20044;-58
2022/08/17 05:01:39;;;;;;;4.50;4.05;;;26.70;68.00;;;;;;5052707;28;20116;-57
2022/08/17 05:04:09;;;;;;;5.03;4.07;;;26.70;68.00;;;;;;5052571;28;20109;-57
2022/08/17 05:06:35;;;;;;;4.20;3.90;;;;;;;;;;5052789;28;20036;-58
2022/08/17 05:09:01;;;;;;;5.05;4.32;;;;;;;;;;5052634;28;20029;-57
2022/08/17 05:11:27;;;;;;;4.70;4.30;;;;;;;;;;5052680;28;20075;-58
2022/08/17 05:13:54;;;;;;;4.60;4.20;;;26.70;68.00;;;;;;5052669;28;20082;-58
2022/08/17 05:16:21;;;;;;;4.32;3.95;;;26.60;65.10;;;;;;5052777;28;20425;-56
2022/08/17 05:18:47;;;;;;;4.78;3.80;;;;;;;;;;5052583;28;20067;-56
2022/08/17 05:21:14;;;;;;;4.57;4.18;;;;;;;;;;5052376;28;20392;-55
2022/08/17 05:23:40;;;;;;;6.72;4.63;;;26.70;65.30;;;;;;5052550;28;20105;-56
2022/08/17 05:26:06;;;;;;;6.45;4.68;;;;;;;;;;5052436;28;20078;-54
2022/08/17 05:28:32;;;;;;;6.57;4.68;;;;;;;;;;5052334;28;20108;-56
2022/08/17 05:31:00;;;;;;;5.70;4.50;;;26.70;67.50;;;;;;5052420;28;20068;-56
2022/08/17 05:33:29;;;;;;;7.22;4.43;;;26.60;67.50;;;;;;5052290;28;20025;-56
2022/08/17 05:35:57;;;;;;;6.07;4.70;;;26.70;67.40;;;;;;5052300;28;20051;-55
2022/08/17 05:38:25;;;;;;;5.13;4.40;;;26.40;67.30;;;;;;5052284;28;20033;-56
2022/08/17 05:40:52;;;;;;;5.00;4.10;;;26.70;64.70;;;;;;5052216;28;20123;-55
2022/08/17 05:43:18;;;;;;;5.32;3.67;;;;;;;;;;5052251;28;20021;-56
2022/08/17 05:46:09;;;;;;;4.68;4.28;;;26.60;67.30;;;;;;5052162;28;20107;-56
2022/08/17 05:48:44;;;;;;;4.65;4.05;;;26.90;67.30;;;;;;5052226;28;20032;-56
2022/08/17 05:51:10;;;;;;;7.20;4.53;;;;;;;;;;5052150;28;20040;-55
2022/08/17 05:54:03;;;;;;;4.40;4.00;;;26.50;61.90;;;;;;5052096;28;20391;-55
2022/08/17 05:57:03;;;;;;;7.30;4.28;;;26.80;61.80;;;;;;5052016;28;20109;-54
2022/08/17 05:59:56;;;;;;;6.35;4.05;;;26.80;61.60;;;;;;5051977;28;20035;-54
2022/08/17 06:02:27;;;;;;;4.03;3.65;;;26.80;61.60;;;;;;5051785;28;20049;-52
2022/08/17 06:05:29;;;;;;;6.60;3.65;;;26.80;61.90;;;;;;5051965;28;20414;-53
2022/08/17 06:07:59;;;;;;;6.10;4.22;;;26.70;67.50;;;;;;5052023;28;20415;-51
2022/08/17 06:11:02;;;;;;;4.70;4.30;;;26.70;62.10;;;;;;5051943;28;20106;-51
2022/08/17 06:14:02;;;;;;;5.05;4.07;;;26.70;62.00;;;;;;5027545;28;20042;-51
2022/08/17 06:16:35;;;;;;;;;;;26.70;62.80;;;;;;5052337;28;20479;-50
2022/08/17 06:19:18;;;;;;;4.28;3.88;;;26.70;61.80;;;;;;5052212;28;19908;-52
2022/08/17 06:21:48;;;;;;;6.07;4.30;;;26.70;67.60;;;;;;5051839;28;20071;-55
2022/08/17 06:24:14;;;;;;;5.15;3.65;;;;;;;;;;5051741;28;20036;-55
2022/08/17 06:26:44;;;;;;;4.20;3.80;;;26.70;67.20;;;;;;5051551;28;20021;-54
2022/08/17 06:29:32;;;;;;;3.85;3.40;;;26.80;61.70;;;;;;5051776;28;20074;-53
2022/08/17 06:31:58;;;;;;;6.45;3.88;;;;;;;;;;5051785;28;20112;-54
2022/08/17 06:34:24;;;;;;;4.15;3.75;;;;;;;;;;5051606;28;20078;-53
2022/08/17 06:37:00;;;;;;;6.05;4.88;;;26.70;61.90;;;;;;5051693;28;20100;-54
2022/08/17 06:39:43;;;;;;;8.68;4.90;;;26.90;63.10;;;;;;5051541;28;20028;-51
2022/08/17 06:42:39;;;;;;;6.82;5.90;;;26.70;64.10;;;;;;5052006;28;20458;-51
2022/08/17 06:45:13;;;;;;;10.10;8.07;;;26.80;70.30;;;;;;5051839;28;20041;-51
2022/08/17 06:47:47;;;;;;;9.60;7.60;;;26.70;65.30;;;;;;5051617;28;20025;-50
2022/08/17 06:50:26;;;;;;;10.65;7.90;;;26.70;65.90;;;;;;5051587;28;20029;-51
2022/08/17 06:53:14;;;;;;;11.80;7.95;;;26.70;66.00;;;;;;5051568;28;20082;-51
2022/08/17 06:55:51;;;;;;;10.82;8.82;;;26.60;66.40;;;;;;5051519;28;20029;-50
2022/08/17 06:58:21;;;;;;;9.63;8.30;;;26.60;71.80;;;;;;5051918;28;20368;-50
2022/08/17 07:00:49;;;;;;;11.45;8.95;;;26.70;72.60;;;;;;5055290;28;20399;-51
2022/08/17 07:03:43;;;;;;;10.65;8.75;;;26.70;67.30;;;;;;5054779;28;20041;-51
2022/08/17 07:06:19;;;;;;;11.52;10.27;;;26.50;67.60;;;;;;5052616;28;20041;-51
2022/08/17 07:09:28;;;;;;;12.15;10.82;;;26.60;68.10;;;;;;5054956;28;20075;-51
2022/08/17 07:12:16;;;;;;;13.32;10.70;;;26.50;73.70;;;;;;5045653;28;20040;-51
2022/08/17 07:14:50;;;;;;;11.98;9.95;;;26.50;73.70;;;;;;5054909;28;20025;-51
2022/08/17 07:17:17;;;;;;;10.90;9.18;;;26.50;73.70;;;;;;5054854;28;20025;-51
2022/08/17 07:19:47;;;;;;;13.75;10.20;;;26.50;73.50;;;;;;5054627;28;20036;-50
2022/08/17 07:22:15;;;;;;;15.38;9.68;;;26.60;68.30;;;;;;5054752;28;20064;-52
2022/08/17 07:24:43;;;;;;;12.68;10.00;;;;;;;;;;5054651;28;20222;-51
2022/08/17 07:27:09;;;;;;;10.65;9.20;;;;;;;;;;5054860;28;20410;-50
2022/08/17 07:29:39;;;;;;;11.25;9.23;;;26.50;74.00;;;;;;5054481;28;20103;-51
2022/08/17 07:32:05;;;;;;;11.60;9.20;;;;;;;;;;5054613;28;20033;-51
2022/08/17 07:34:58;;;;;;;12.50;10.93;;;26.40;74.20;;;;;;5054554;28;20021;-49
2022/08/17 07:37:24;;;;;;;15.25;10.15;;;;;;;;;;5054495;28;20100;-50
2022/08/17 07:39:50;;;;;;;10.80;9.73;;;;;;;;;;5054185;28;20125;-50
2022/08/17 07:42:16;;;;;;;11.70;9.77;;;;;;;;;;5054642;28;20100;-49
2022/08/17 07:44:52;;;;;;;10.70;9.60;;;26.40;68.50;;;;;;5054214;28;20029;-50
2022/08/17 07:50:24;;;;;;;13.07;11.20;;;26.40;74.60;;;;;;5054157;28;20454;-50
2022/08/17 07:52:50;;;;;;;11.95;10.23;;;;;;;;;;5054173;28;20024;-49
2022/08/17 07:55:28;;;;;;;11.95;9.00;;;26.30;68.60;;;;;;5054092;28;20438;-50
2022/08/17 07:57:57;;;;;;;11.00;9.90;;;26.40;74.40;;;;;;5053926;28;20047;-50
2022/08/17 08:00:23;;;;;;;11.30;10.10;;;;;;;;;;5053911;28;20047;-50
2022/08/17 08:03:30;;;;;;;12.57;10.40;;;26.40;68.80;;;;;;5053660;28;20079;-50
2022/08/17 08:06:00;;;;;;;10.57;9.48;;;26.40;74.40;;;;;;5005316;28;20041;-51
2022/08/17 08:08:42;;;;;;;;;;;26.40;75.00;;;;;;5054271;28;20075;-53
2022/08/17 08:11:11;;;;;;;12.23;8.48;;;26.40;74.10;;;;;;5053143;28;19905;-50
2022/08/17 08:13:41;;;;;;;10.60;8.55;;;26.50;74.40;;;;;;5053963;28;20066;-53
2022/08/17 08:16:23;;;;;;;10.43;7.45;;;26.40;68.70;;;;;;5053680;28;20450;-52
2022/08/17 08:18:55;;;;;;;10.18;7.10;;;26.50;68.60;;;;;;5053633;28;20072;-55
2022/08/17 08:21:34;;;;;;;7.65;6.35;;;26.50;68.20;;;;;;5053652;28;20240;-50
2022/08/17 08:24:35;;;;;;;7.75;6.80;;;26.60;68.50;;;;;;5053550;28;20032;-50
2022/08/17 08:27:25;;;;;;;7.55;6.32;;;26.60;74.00;;;;;;5053494;28;20110;-49
2022/08/17 08:30:08;;;;;;;6.05;5.13;;;26.50;68.10;;;;;;5053488;28;20040;-49
2022/08/17 08:32:52;;;;;;;8.13;5.70;;;26.60;68.30;;;;;;5053351;28;20021;-49
2022/08/17 08:35:36;;;;;;;6.80;5.28;;;26.60;68.10;;;;;;5053633;28;20150;-50
2022/08/17 08:38:42;;;;;;;5.82;5.22;;;26.60;68.10;;;;;;5053491;28;20021;-49
2022/08/17 08:41:39;;;;;;;8.60;4.68;;;26.70;67.90;;;;;;5030360;28;20049;-49
2022/08/17 08:44:17;;;;;;;7.25;5.38;;;26.90;68.10;;;;;;5053070;28;20025;-50
2022/08/17 08:46:59;;;;;;;5.18;4.57;;;26.70;73.50;;;;;;5053107;28;20029;-50
2022/08/17 08:50:11;;;;;;;8.05;5.35;;;26.70;67.70;;;;;;5053034;28;20027;-50
2022/08/17 08:53:10;;;;;;;5.70;4.90;;;26.70;73.10;;;;;;5038717;28;20037;-50
2022/08/17 08:55:36;;;;;;;5.30;4.80;;;;;;;;;;5052952;28;20464;-50
2022/08/17 08:58:08;;;;;;;6.75;5.25;;;26.70;73.00;;;;;;5052685;28;20108;-53
2022/08/17 09:00:42;;;;;;;5.57;4.82;;;26.70;72.80;;;;;;5052762;28;20048;-50
2022/08/17 09:03:42;;;;;;;4.80;4.40;;;26.60;67.00;;;;;;5052537;28;20099;-53
2022/08/17 09:06:43;;;;;;;4.57;4.13;;;26.70;67.00;;;;;;5052845;28;20056;-50
2022/08/17 09:09:24;;;;;;;4.60;4.20;;;26.70;72.30;;;;;;5052704;28;20037;-51
2022/08/17 09:12:15;;;;;;;6.38;4.70;;;26.70;66.60;;;;;;5052794;28;20021;-54
2022/08/17 09:14:53;;;;;;;4.60;4.20;;;26.70;72.00;;;;;;5052638;28;20039;-53
2022/08/17 09:17:35;;;;;;;5.57;4.72;;;26.80;71.90;;;;;;5052618;28;20386;-53
2022/08/17 09:20:24;;;;;;;5.30;4.80;;;26.80;66.20;;;;;;5052381;28;20025;-52
2022/08/17 09:22:55;;;;;;;5.80;4.45;;;26.70;71.60;;;;;;5052563;28;20055;-54
2022/08/17 09:25:27;;;;;;;5.55;4.07;;;26.70;71.70;;;;;;5052481;28;20029;-52
2022/08/17 09:28:02;;;;;;;4.75;4.25;;;26.70;65.80;;;;;;5052441;28;20116;-52
2022/08/17 09:30:45;;;;;;;11.85;4.25;;;26.70;71.30;;;;;;5052595;28;20028;-51
2022/08/17 09:33:16;;;;;;;4.68;4.25;;;26.80;71.50;;;;;;5052240;28;20032;-52
2022/08/17 09:35:47;;;;;;;4.93;4.18;;;26.70;71.30;;;;;;5052294;28;20032;-50
2022/08/17 09:38:43;;;;;;;4.32;3.97;;;26.60;65.60;;;;;;5052252;28;20025;-50
2022/08/17 09:41:16;;;;;;;4.28;3.88;;;26.70;65.80;;;;;;5052058;28;20036;-50
2022/08/17 09:43:42;;;;;;;3.95;3.65;;;;;;;;;;5052186;28;20029;-52
2022/08/17 09:46:29;;;;;;;4.53;4.13;;;26.70;65.40;;;;;;5051817;28;20079;-50
2022/08/17 09:48:55;;;;;;;4.32;3.92;;;;;;;;;;5052118;28;20380;-51
2022/08/17 09:51:29;;;;;;;4.20;3.80;;;26.80;65.60;;;;;;5051944;28;20025;-52
2022/08/17 09:53:55;;;;;;;4.30;3.80;;;;;;;;;;5052345;28;20313;-49
2022/08/17 09:56:22;;;;;;;6.22;3.55;;;;;;;;;;5051961;28;20032;-49
2022/08/17 09:58:49;;;;;;;4.60;4.05;;;;;;;;;;5052068;28;20025;-53
2022/08/17 10:01:41;;;;;;;3.75;3.40;;;26.70;65.30;;;;;;5051894;28;20044;-51
2022/08/17 10:04:18;;;;;;;4.15;3.72;;;27.00;71.30;;;;;;5051832;28;20511;-50
2022/08/17 10:07:16;;;;;;;4.15;3.85;;;26.70;65.40;;;;;;5052036;28;20025;-51
2022/08/17 10:09:54;;;;;;;4.13;3.75;;;26.70;65.20;;;;;;5019895;28;20033;-53
2022/08/17 10:12:37;;;;;;;4.78;3.80;;;26.80;65.30;;;;;;5051888;28;20208;-51
2022/08/17 10:15:41;;;;;;;4.07;3.78;;;26.80;65.10;;;;;;5051952;28;20029;-50
2022/08/17 10:18:28;;;;;;;3.80;3.50;;;26.80;65.60;;;;;;5051258;28;20041;-51
2022/08/17 10:26:37;;;;;;;;;;;26.80;70.90;;;;;;5052541;28;20130;-53
2022/08/17 10:29:06;;;;;;;3.50;3.30;;;26.80;70.80;;;;;;5051779;28;19935;-52
2022/08/17 10:31:39;;;;;;;6.38;3.85;;;26.70;70.70;;;;;;5051651;28;20096;-54
2022/08/17 10:34:30;;;;;;;3.72;3.42;;;27.00;65.30;;;;;;5054730;28;20032;-53
2022/08/17 10:37:14;;;;;;;3.85;3.55;;;26.80;64.90;;;;;;5055625;28;20029;-53
2022/08/17 10:39:45;;;;;;;3.80;3.33;;;26.70;64.80;;;;;;5055444;28;20061;-52
2022/08/17 10:42:27;;;;;;;4.97;3.75;;;26.70;70.30;;;;;;5055538;28;20063;-53
2022/08/17 10:45:05;;;;;;;4.40;3.53;;;26.70;64.70;;;;;;5055275;28;20484;-51
2022/08/17 10:48:06;;;;;;;3.80;3.50;;;26.70;64.70;;;;;;5055137;28;20029;-52
2022/08/17 10:50:56;;;;;;;3.58;3.28;;;26.80;64.80;;;;;;4974109;28;20146;-54
2022/08/17 10:53:31;;;;;;;3.83;3.47;;;26.70;64.40;;;;;;5052342;28;20045;-52
2022/08/17 10:56:12;;;;;;;3.45;3.15;;;26.80;64.40;;;;;;5055207;28;20060;-54
2022/08/17 10:58:53;;;;;;;3.70;3.40;;;26.80;64.50;;;;;;5055086;28;20036;-51
2022/08/17 11:01:31;;;;;;;5.80;3.08;;;26.80;64.70;;;;;;5054984;28;20065;-53
2022/08/17 11:04:02;;;;;;;3.60;3.30;;;26.80;70.40;;;;;;5054933;28;20596;-51
2022/08/17 11:06:28;;;;;;;3.83;3.50;;;;;;;;;;5054919;28;20025;-54
2022/08/17 11:09:18;;;;;;;3.17;2.80;;;26.80;65.10;;;;;;5054965;28;20037;-54
2022/08/17 11:11:46;;;;;;;4.57;3.40;;;;;;;;;;5054909;28;20023;-53
2022/08/17 11:14:22;;;;;;;3.47;3.17;;;26.80;64.90;;;;;;5054962;28;20115;-51
2022/08/17 11:17:19;;;;;;;3.83;3.53;;;26.70;64.70;;;;;;5054775;28;20357;-52
2022/08/17 11:20:03;;;;;;;3.88;3.53;;;26.80;65.00;;;;;;5054551;28;20032;-54
2022/08/17 11:22:37;;;;;;;3.83;3.25;;;26.80;65.00;;;;;;5054692;28;20521;-53
2022/08/17 11:25:16;;;;;;;6.88;4.00;;;26.90;65.00;;;;;;5054619;28;20036;-54
2022/08/17 11:27:42;;;;;;;5.43;3.60;;;26.50;67.40;;;;;;5054442;28;20033;-54
2022/08/17 11:30:33;;;;;;;4.03;3.60;;;26.70;64.90;;;;;;5054511;28;20108;-50
2022/08/17 11:32:59;;;;;;;3.50;3.20;;;;;;;;;;5054535;28;20036;-55
2022/08/17 11:35:47;;;;;;;3.80;3.50;;;26.70;70.90;;;;;;5054490;28;20029;-54
2022/08/17 11:38:27;;;;;;;4.03;3.65;;;26.80;65.50;;;;;;5054493;28;20079;-55
2022/08/17 11:41:08;;;;;;;5.18;3.60;;;26.80;65.30;;;;;;5054305;28;20301;-55
2022/08/17 11:44:14;;;;;;;3.85;3.53;;;26.50;65.30;;;;;;5054090;28;20109;-54
2022/08/17 11:52:45;;;;;;;4.50;3.15;;;26.80;70.90;;;;;;5054407;28;20056;-49
2022/08/17 11:55:36;;;;;;;3.88;3.53;;;27.00;71.00;;;;;;5054411;28;20431;-51
2022/08/17 11:58:02;;;;;;;4.00;3.60;;;;;;;;;;5053937;28;20021;-51
2022/08/17 12:00:43;;;;;;;3.63;3.33;;;26.70;65.20;;;;;;5053941;28;20040;-50
2022/08/17 12:03:43;;;;;;;4.50;3.33;;;26.60;65.10;;;;;;5053554;28;20045;-52
2022/08/17 12:06:09;;;;;;;3.83;2.88;;;;;;;;;;5054006;28;20037;-51
2022/08/17 12:08:42;;;;;;;3.55;3.25;;;26.70;70.70;;;;;;5054220;28;20064;-48
2022/08/17 12:11:19;;;;;;;3.70;3.40;;;26.80;65.40;;;;;;5054010;28;20029;-48
2022/08/17 12:13:54;;;;;;;3.80;3.35;;;26.80;70.70;;;;;;5054004;28;20100;-50
2022/08/17 12:16:20;;;;;;;4.35;3.50;;;26.80;69.40;;;;;;5054274;28;20021;-50
2022/08/17 12:19:01;;;;;;;4.00;3.58;;;26.80;65.40;;;;;;5053894;28;20025;-51
2022/08/17 12:21:45;;;;;;;4.00;3.38;;;26.80;71.00;;;;;;5053695;28;20037;-52
2022/08/17 12:24:40;;;;;;;5.00;3.92;;;26.90;65.80;;;;;;5053783;28;20096;-51
2022/08/17 12:27:09;;;;;;;3.10;2.83;;;26.90;71.20;;;;;;5049629;28;20041;-51
2022/08/17 12:29:37;;;;;;;4.53;3.38;;;26.80;71.40;;;;;;5053620;28;20395;-52
2022/08/17 12:32:05;;;;;;;4.40;3.78;;;26.80;71.10;;;;;;5053622;28;20021;-52
2022/08/17 12:34:40;;;;;;;4.95;3.47;;;27.10;65.60;;;;;;5053405;28;20025;-55
2022/08/17 12:37:14;;;;;;;3.28;3.05;;;26.80;71.00;;;;;;5053408;28;20028;-54
2022/08/17 12:39:55;;;;;;;4.55;3.83;;;26.80;71.00;;;;;;5053329;28;20025;-50
2022/08/17 12:42:30;;;;;;;4.53;3.90;;;26.70;65.50;;;;;;5053455;28;20056;-54
2022/08/17 12:44:57;;;;;;;3.85;3.45;;;26.90;70.90;;;;;;5053127;28;20078;-52
2022/08/17 12:47:23;;;;;;;4.18;3.40;;;;;;;;;;5053213;28;20391;-53
2022/08/17 12:49:52;;;;;;;4.50;3.40;;;26.70;70.90;;;;;;5053346;28;20399;-55
2022/08/17 12:52:17;;;;;;;3.60;3.30;;;;;;;;;;5053208;28;20048;-54
2022/08/17 12:54:53;;;;;;;3.75;3.45;;;26.80;65.60;;;;;;5052962;28;20507;-52
2022/08/17 12:57:23;;;;;;;3.60;3.30;;;26.80;71.10;;;;;;5052577;28;20040;-53
2022/08/17 12:59:57;;;;;;;5.03;3.58;;;26.90;71.30;;;;;;5052817;28;20025;-54
2022/08/17 13:02:46;;;;;;;3.05;2.83;;;26.90;71.20;;;;;;5052795;28;20178;-54
2022/08/17 13:05:30;;;;;;;3.92;3.50;;;26.70;65.70;;;;;;5052892;28;20045;-55
2022/08/17 13:07:58;;;;;;;6.00;3.40;;;27.00;71.60;;;;;;5052848;28;20498;-52
2022/08/17 13:10:31;;;;;;;4.28;3.47;;;26.80;65.80;;;;;;5052712;28;20029;-53
2022/08/17 13:13:01;;;;;;;5.28;3.55;;;;;;;;;;5052697;28;20039;-55
2022/08/17 13:15:33;;;;;;;4.55;4.10;;;26.70;71.20;;;;;;5052451;28;20033;-55
2022/08/17 13:18:24;;;;;;;6.20;3.90;;;26.70;71.20;;;;;;5052453;28;20404;-52
2022/08/17 13:20:56;;;;;;;5.65;3.60;;;26.90;71.10;;;;;;5052358;28;20504;-55
2022/08/17 13:23:28;;;;;;;3.72;3.40;;;26.80;71.10;;;;;;5052557;28;20469;-53
2022/08/17 13:26:13;;;;;;;5.00;3.75;;;26.80;65.60;;;;;;5052586;28;20071;-55
2022/08/17 13:28:39;;;;;;;3.65;3.35;;;;;;;;;;5052436;28;20368;-53
2022/08/17 13:31:27;;;;;;;3.97;3.40;;;26.60;65.50;;;;;;5052202;28;20025;-55
2022/08/17 13:34:29;;;;;;;4.78;3.58;;;26.90;65.70;;;;;;5052196;28;20025;-55
2022/08/17 13:37:28;;;;;;;4.05;3.63;;;26.90;66.00;;;;;;5052441;28;20162;-55
2022/08/17 13:40:09;;;;;;;4.10;3.67;;;26.80;66.20;;;;;;5052294;28;20089;-53
2022/08/17 13:42:54;;;;;;;5.53;3.83;;;26.80;66.70;;;;;;5052287;28;20041;-52
2022/08/17 13:45:29;;;;;;;4.28;3.88;;;26.80;66.80;;;;;;5052464;28;20021;-51
2022/08/17 13:48:22;;;;;;;5.47;4.28;;;26.80;66.60;;;;;;5052293;28;20479;-51
2022/08/17 13:50:53;;;;;;;3.80;3.50;;;26.90;66.20;;;;;;5052197;28;20126;-51
2022/08/17 13:53:19;;;;;;;4.40;4.00;;;;;;;;;;5052025;28;20036;-53
2022/08/17 13:56:02;;;;;;;4.30;3.90;;;27.00;66.30;;;;;;5052117;28;20025;-51
2022/08/17 13:58:59;;;;;;;3.78;3.40;;;26.90;66.10;;;;;;5052134;28;20060;-50
2022/08/17 14:01:38;;;;;;;5.72;3.92;;;27.10;66.20;;;;;;5051368;28;20057;-54
2022/08/17 14:04:07;;;;;;;3.65;3.35;;;27.00;71.40;;;;;;5051884;28;20044;-55
2022/08/17 14:07:03;;;;;;;3.92;3.50;;;27.10;71.70;;;;;;5052026;28;20021;-53
2022/08/17 14:09:33;;;;;;;3.67;3.38;;;27.10;71.60;;;;;;5054982;28;20045;-55
2022/08/17 14:12:00;;;;;;;4.50;3.65;;;27.20;71.20;;;;;;5056143;28;20035;-55
2022/08/17 14:14:28;;;;;;;3.88;3.47;;;;;;;;;;5055940;28;20042;-55
2022/08/17 14:16:56;;;;;;;3.80;3.50;;;27.20;68.20;;;;;;5056080;28;20021;-53
2022/08/17 14:19:23;;;;;;;5.85;4.00;;;27.30;67.90;;;;;;5056068;28;20025;-54
2022/08/17 14:21:49;;;;;;;7.50;4.10;;;;;;;;;;5055845;28;20367;-52
2022/08/17 14:24:22;;;;;;;7.65;3.40;;;27.30;71.20;;;;;;5055956;28;20025;-52